Aeroporto :
LOGIN :

Iscrizione | Disclaimer

   EN    FR    IT 

 










Sommario :    VFR   VFR Marginale   IFR   IFR Intensivo   IFR Molto Intensivo
Visibilità : 
Base nubi : 
>= 8 km
>= 3000ft
5 / 8 km
1000 / 3000 ft
1500m / 5 km
500 / 1000 ft
800 / 1500m
200 / 500 ft
< 800m
< 200 ft
Simboli :   Temporali  Nebbia  Neve Forte  Precipitazioni Forti  Vento > 20 kt
SIGMETs :   Varie  Temporali  Ghiacco  Turbolenza  Onda orograficha  Ceneri Vulcaniche






- Altitudine del aeroporto : 616 ft
- Codice IATA : PUF


LFBP - Pau

ULTIMO METAR :
  • 192130Z AUTO 09003KT CAVOK 04/03 Q1028 NOSIG

METARs OBSOLETI :
  • 192100Z AUTO VRB02KT CAVOK 05/03 Q1028 NOSIG
  • 192030Z AUTO 13004KT CAVOK 05/04 Q1028 NOSIG
  • 192000Z AUTO VRB01KT CAVOK 06/04 Q1028 NOSIG
  • 191930Z AUTO 06002KT CAVOK 06/04 Q1029 NOSIG
  • 191900Z AUTO 04003KT CAVOK 07/05 Q1029 NOSIG

TAF TAF LFBP
Valido dal 19 a 18 ore il 20 a 18 ore UTC


191700Z 1918/2018 33008KT 9999 SCT040
BECMG 1918/1920 VRB03KT CAVOK
BECMG 2000/2002 3000 BR NSC
TEMPO 2003/2007 0300 FG VV///
BECMG 2008/2010 CAVOK
BECMG 2012/2014 33010KT



MetMap, La meteo Aeronautica in un colpo d'occhio ! - Copyright ORBIFLY Dicembre 2007 - Disclaimer

ORBIFLY MET'MAP TEAM :

Programmazione e sviluppo : Alexandra Zaïnal
Concezione : Baudouin d'Aumeries
Aiuto per la programmazione : Marc-Olivier Méhu
Supporto tecnico e logistico : Manuel Goepfert
Aiuto per la traduzione : Arnaldo La Scala

Contatto : metmap@orbifly.com




FONTI E CREDITI :

   NOAA